This is the latest recevied weather packets stored in our database for station/object N4AN. If no packets are shown the sender has not sent any weather packets the latest 10 day(s).
| Time | Temp. | Humidity | Pressure | Rain* | Wind** | Luminosity | Snow |
|---|---|---|---|---|---|---|---|
| 1777907060 | 23.89° C | 87% | 1009.9 hPa | 4.32 mm | - | - | - |
| 1777906760 | 24.44° C | 87% | 1009.7 hPa | 0 mm | - | - | - |
| 1777906460 | 24.44° C | 88% | 1009.8 hPa | 0 mm | - | - | - |
| 1777906159 | 24.44° C | 88% | 1009.6 hPa | 0 mm | - | - | - |
| 1777905859 | 24.44° C | 88% | 1009.6 hPa | 0 mm | - | - | - |
| 1777905559 | 24.44° C | 88% | 1009.5 hPa | 1.02 mm | - | - | - |
| 1777905258 | 24.44° C | 88% | 1009.4 hPa | 1.78 mm | - | - | - |
| 1777904958 | 25° C | 87% | 1009.6 hPa | 4.06 mm | - | - | - |
| 1777904658 | 25° C | 88% | 1009.7 hPa | 13.46 mm | - | - | - |
| 1777904358 | 25° C | 88% | 1009.5 hPa | 0 mm | - | - | - |
| 1777904057 | 25° C | 88% | 1009.6 hPa | 0 mm | - | - | - |
| 1777903757 | 25° C | 89% | 1009.5 hPa | 0 mm | - | - | - |
| 1777903457 | 25° C | 90% | 1009.5 hPa | 0 mm | - | - | - |
| 1777903160 | 24.44° C | 90% | 1009.4 hPa | 0 mm | - | - | - |
| 1777902856 | 24.44° C | 91% | 1009.5 hPa | 0 mm | - | - | - |
| 1777902556 | 24.44° C | 91% | 1009.4 hPa | 0 mm | - | - | - |
| 1777902256 | 24.44° C | 92% | 1009.3 hPa | 0 mm | - | - | - |
| 1777901955 | 24.44° C | 92% | 1009.2 hPa | 0 mm | - | - | - |
| 1777901654 | 24.44° C | 93% | 1009.2 hPa | 0 mm | - | - | - |
| 1777901354 | 23.89° C | 93% | 1009.2 hPa | 0 mm | - | - | - |
| 1777901054 | 23.89° C | 93% | 1009.2 hPa | 0 mm | - | - | - |
| 1777900753 | 23.33° C | 93% | 1009.1 hPa | 0 mm | - | - | - |
| 1777900453 | 23.33° C | 93% | 1009.1 hPa | 0 mm | - | - | - |
| 1777900153 | 23.33° C | 94% | 1009.1 hPa | 0 mm | - | - | - |
| 1777899852 | 23.33° C | 94% | 1008.9 hPa | 0 mm | - | - | - |
* Rain latest hour (hover to see other rain measurements)
** Current wind speed in m/s (hover to see current wind gust speed)